createdAt,value
2022-09-24T00:02:23.012Z,17.20
2022-09-24T00:04:51.276Z,17.17
2022-09-24T00:07:19.546Z,17.23
2022-09-24T00:09:48.314Z,17.19
2022-09-24T00:12:18.893Z,17.14
2022-09-24T00:14:47.099Z,17.18
2022-09-24T00:17:15.295Z,17.24
2022-09-24T00:19:44.423Z,17.24
2022-09-24T00:22:12.767Z,17.29
2022-09-24T00:24:58.706Z,17.24
2022-09-24T00:27:29.089Z,17.34
2022-09-24T00:29:57.766Z,17.32
2022-09-24T00:32:26.152Z,17.09
2022-09-24T00:34:54.401Z,17.30
2022-09-24T00:37:22.751Z,17.33
2022-09-24T00:39:51.086Z,17.32
2022-09-24T00:42:20.897Z,17.22
2022-09-24T00:44:57.785Z,17.32
2022-09-24T00:47:41.659Z,17.42
2022-09-24T00:50:18.766Z,17.27
2022-09-24T00:52:54.628Z,17.39
2022-09-24T00:55:24.839Z,17.38
2022-09-24T00:57:57.653Z,17.38
2022-09-24T01:00:27.876Z,17.38
2022-09-24T01:03:03.040Z,17.42
2022-09-24T01:05:31.485Z,17.41
2022-09-24T01:08:00.184Z,17.46
2022-09-24T01:10:48.866Z,17.51
2022-09-24T01:13:40.042Z,17.55
2022-09-24T01:16:21.473Z,17.59
2022-09-24T01:18:58.044Z,17.44
2022-09-24T01:21:36.690Z,17.50
2022-09-24T01:24:48.930Z,17.43
2022-09-24T01:27:21.983Z,17.29
2022-09-24T01:30:05.795Z,17.41
2022-09-24T01:32:40.182Z,17.39
2022-09-24T01:35:16.039Z,16.91
2022-09-24T01:37:49.308Z,17.20
2022-09-24T01:40:19.697Z,17.39
2022-09-24T01:42:49.321Z,17.40
2022-09-24T01:45:19.983Z,17.42
2022-09-24T01:47:48.422Z,17.25
2022-09-24T01:50:20.130Z,17.16
2022-09-24T01:52:54.703Z,17.25
2022-09-24T01:55:28.712Z,16.84
2022-09-24T01:58:02.829Z,16.69
2022-09-24T02:00:32.775Z,16.73
2022-09-24T02:03:12.640Z,16.80
2022-09-24T02:05:47.399Z,16.68
2022-09-24T02:08:20.815Z,16.69
2022-09-24T02:10:55.829Z,16.69
2022-09-24T02:13:27.990Z,16.71
2022-09-24T02:16:01.466Z,16.66
2022-09-24T02:18:34.383Z,16.62
2022-09-24T02:21:14.799Z,16.63
2022-09-24T02:23:48.212Z,15.96
2022-09-24T02:26:16.581Z,16.56
2022-09-24T02:28:45.535Z,16.57
2022-09-24T02:31:20.216Z,16.02
2022-09-24T02:34:09.541Z,16.73
2022-09-24T02:36:39.754Z,16.56
2022-09-24T02:39:08.003Z,16.61
2022-09-24T02:41:37.193Z,16.59
2022-09-24T02:44:05.631Z,16.63
2022-09-24T02:46:35.322Z,16.66
2022-09-24T02:49:03.814Z,16.63
2022-09-24T02:51:32.241Z,16.73
2022-09-24T02:54:01.424Z,16.75
2022-09-24T02:56:29.840Z,16.38
2022-09-24T02:58:58.507Z,16.50
2022-09-24T03:01:27.028Z,16.50
2022-09-24T03:03:57.115Z,16.38
2022-09-24T03:06:25.807Z,16.38
2022-09-24T03:08:54.776Z,16.37
2022-09-24T03:11:24.412Z,16.40
2022-09-24T03:13:53.072Z,16.41
2022-09-24T03:16:22.015Z,16.38
2022-09-24T03:18:50.402Z,16.35
2022-09-24T03:21:22.531Z,16.28
2022-09-24T03:23:51.599Z,16.32
2022-09-24T03:26:19.840Z,16.37
2022-09-24T03:28:48.137Z,16.17
2022-09-24T03:31:15.573Z,16.38
2022-09-24T03:33:46.478Z,16.46
2022-09-24T03:36:17.868Z,16.55
2022-09-24T03:38:49.471Z,16.60
2022-09-24T03:41:18.770Z,16.47
2022-09-24T03:43:47.044Z,16.51
2022-09-24T03:46:17.223Z,16.69
2022-09-24T03:48:47.211Z,16.77
2022-09-24T03:51:18.671Z,16.86
2022-09-24T03:53:49.257Z,16.85
2022-09-24T03:56:17.575Z,16.93
2022-09-24T03:58:47.467Z,17.02
2022-09-24T04:01:21.733Z,17.07
2022-09-24T04:03:51.137Z,17.11
2022-09-24T04:06:23.621Z,17.03
2022-09-24T04:08:55.752Z,17.20
2022-09-24T04:11:24.394Z,17.19
2022-09-24T04:13:52.915Z,17.22
2022-09-24T04:16:21.867Z,17.27
2022-09-24T04:18:50.971Z,17.25
2022-09-24T04:21:19.304Z,17.30
2022-09-24T04:23:47.613Z,17.41
2022-09-24T04:26:17.310Z,17.42
2022-09-24T04:28:45.538Z,17.46
2022-09-24T04:31:13.808Z,17.53
2022-09-24T04:33:42.297Z,17.55
2022-09-24T04:36:10.632Z,17.57
2022-09-24T04:38:39.066Z,17.55
2022-09-24T04:41:08.639Z,17.71
2022-09-24T04:43:38.278Z,17.74
2022-09-24T04:46:09.294Z,17.65
2022-09-24T04:48:38.351Z,17.40
2022-09-24T04:51:07.566Z,17.37
2022-09-24T04:53:37.207Z,17.49
2022-09-24T04:56:06.015Z,17.54
2022-09-24T04:58:34.320Z,17.58
2022-09-24T05:01:04.981Z,17.61
2022-09-24T05:03:33.479Z,17.43
2022-09-24T05:06:02.283Z,17.40
2022-09-24T05:08:30.495Z,17.37
2022-09-24T05:10:58.807Z,17.43
2022-09-24T05:13:27.480Z,17.44
2022-09-24T05:15:56.383Z,17.42
2022-09-24T05:18:26.984Z,17.37
2022-09-24T05:20:56.178Z,17.45
2022-09-24T05:23:24.800Z,17.32
2022-09-24T05:26:10.406Z,17.37
2022-09-24T05:28:40.294Z,17.39
2022-09-24T05:31:09.156Z,17.40
2022-09-24T05:33:39.184Z,17.28
2022-09-24T05:36:07.841Z,17.33
2022-09-24T05:38:39.775Z,17.36
2022-09-24T05:41:10.108Z,17.37
2022-09-24T05:43:38.654Z,17.30
2022-09-24T05:46:08.151Z,17.29
2022-09-24T05:48:38.068Z,17.33
2022-09-24T05:51:06.986Z,17.33
2022-09-24T05:53:35.443Z,17.28
2022-09-24T05:56:03.746Z,17.32
2022-09-24T05:58:32.534Z,17.26
2022-09-24T06:01:01.710Z,17.21
2022-09-24T06:03:31.806Z,17.22
2022-09-24T06:06:02.399Z,17.27
2022-09-24T06:08:32.782Z,17.29
2022-09-24T06:11:02.541Z,17.25
2022-09-24T06:13:31.594Z,17.32
2022-09-24T06:16:02.669Z,17.27
2022-09-24T06:18:31.409Z,17.33
2022-09-24T06:21:04.930Z,17.33
2022-09-24T06:23:33.404Z,17.39
2022-09-24T06:26:01.895Z,17.35
2022-09-24T06:28:30.386Z,17.33
2022-09-24T06:31:02.258Z,17.33
2022-09-24T06:33:30.647Z,17.31
2022-09-24T06:36:04.514Z,17.25
2022-09-24T06:38:33.115Z,17.36
2022-09-24T06:41:03.509Z,17.39
2022-09-24T06:43:32.443Z,17.34
2022-09-24T06:46:01.768Z,17.38
2022-09-24T06:48:31.104Z,17.45
2022-09-24T06:50:59.898Z,17.44
2022-09-24T06:53:29.587Z,17.46
2022-09-24T06:55:59.854Z,17.50
2022-09-24T06:58:29.519Z,17.48
2022-09-24T07:01:02.305Z,17.47
2022-09-24T07:03:33.714Z,17.45
2022-09-24T07:06:04.542Z,17.47
2022-09-24T07:08:34.563Z,17.56
2022-09-24T07:11:03.013Z,17.59
2022-09-24T07:13:31.517Z,17.57
2022-09-24T07:16:01.473Z,17.56
2022-09-24T07:18:29.992Z,17.56
2022-09-24T07:20:58.511Z,17.56
2022-09-24T07:23:27.807Z,17.57
2022-09-24T07:25:58.467Z,17.48
2022-09-24T07:28:26.901Z,17.52
2022-09-24T07:30:59.899Z,16.98
2022-09-24T07:33:28.594Z,17.46
2022-09-24T07:35:56.872Z,17.46
2022-09-24T07:38:25.135Z,17.51
2022-09-24T07:40:54.337Z,17.52
2022-09-24T07:43:24.116Z,17.42
2022-09-24T07:45:55.772Z,17.41
2022-09-24T07:48:24.353Z,17.39
2022-09-24T07:50:52.865Z,17.17
2022-09-24T07:53:21.921Z,17.27
2022-09-24T07:55:50.110Z,17.33
2022-09-24T07:58:18.513Z,17.25
2022-09-24T08:00:48.078Z,17.24
2022-09-24T08:03:16.385Z,17.24
2022-09-24T08:05:46.115Z,17.16
2022-09-24T08:08:14.925Z,17.23
2022-09-24T08:10:43.684Z,17.19
2022-09-24T08:13:12.217Z,17.23
2022-09-24T08:15:40.999Z,17.27
2022-09-24T08:18:11.378Z,17.14
2022-09-24T08:20:40.556Z,17.38
2022-09-24T08:23:11.122Z,17.13
2022-09-24T08:25:39.510Z,17.37
2022-09-24T08:28:10.613Z,17.42
2022-09-24T08:30:39.914Z,17.42
2022-09-24T08:33:08.128Z,17.43
2022-09-24T08:35:38.342Z,17.49
2022-09-24T08:38:07.223Z,17.52
2022-09-24T08:40:46.636Z,17.61
2022-09-24T08:43:30.632Z,17.05
2022-09-24T08:46:21.660Z,17.63
2022-09-24T08:48:54.577Z,17.59
2022-09-24T08:51:24.511Z,17.55
2022-09-24T08:53:58.727Z,17.59
2022-09-24T08:56:31.287Z,17.60
2022-09-24T08:59:01.890Z,17.56
2022-09-24T09:01:39.409Z,17.59
2022-09-24T09:04:24.917Z,17.01
2022-09-24T09:07:07.557Z,17.69
2022-09-24T09:09:46.841Z,17.72
2022-09-24T09:12:19.938Z,17.73
2022-09-24T09:14:57.243Z,17.83
2022-09-24T09:17:45.645Z,17.81
2022-09-24T09:20:20.137Z,17.78
2022-09-24T09:22:53.385Z,17.88
2022-09-24T09:25:25.536Z,17.79
2022-09-24T09:28:01.831Z,17.80
2022-09-24T09:30:38.531Z,17.87
2022-09-24T09:33:25.526Z,17.90
2022-09-24T09:36:03.955Z,17.85
2022-09-24T09:38:40.678Z,17.91
2022-09-24T09:41:22.049Z,17.96
2022-09-24T09:43:50.700Z,18.03
2022-09-24T09:46:24.653Z,17.99
2022-09-24T09:48:57.870Z,18.00
2022-09-24T09:51:28.127Z,17.89
2022-09-24T09:53:59.988Z,17.95
2022-09-24T09:56:31.358Z,17.97
2022-09-24T09:59:18.823Z,18.02
2022-09-24T10:01:50.516Z,17.98
2022-09-24T10:04:39.965Z,18.00
2022-09-24T10:07:11.021Z,18.02
2022-09-24T10:09:43.184Z,18.02
2022-09-24T10:12:17.733Z,18.00
2022-09-24T10:14:46.326Z,17.90
2022-09-24T10:17:19.012Z,17.94
2022-09-24T10:19:50.887Z,17.81
2022-09-24T10:22:24.591Z,17.87
2022-09-24T10:24:55.986Z,17.80
2022-09-24T10:27:32.880Z,17.75
2022-09-24T10:30:21.090Z,17.82
2022-09-24T10:32:58.421Z,17.15
2022-09-24T10:35:33.653Z,17.78
2022-09-24T10:38:03.478Z,17.25
2022-09-24T10:40:41.080Z,17.84
2022-09-24T10:43:19.219Z,17.78
2022-09-24T10:46:16.627Z,17.77
2022-09-24T10:48:47.087Z,17.86
2022-09-24T10:51:29.990Z,17.82
2022-09-24T10:54:29.715Z,17.92
2022-09-24T10:57:01.785Z,18.04
2022-09-24T10:59:50.138Z,18.12
2022-09-24T11:02:46.870Z,18.20
2022-09-24T11:05:21.240Z,18.21
2022-09-24T11:08:18.331Z,18.21
2022-09-24T11:11:19.439Z,18.26
2022-09-24T11:14:03.972Z,18.24
2022-09-24T11:17:25.799Z,18.16
2022-09-24T11:20:17.715Z,18.04
2022-09-24T11:23:13.934Z,18.23
2022-09-24T11:25:53.375Z,18.16
2022-09-24T11:29:01.249Z,18.16
2022-09-24T11:31:41.799Z,17.94
2022-09-24T11:34:29.853Z,18.06
2022-09-24T11:37:21.076Z,18.05
2022-09-24T11:40:06.593Z,17.99
2022-09-24T11:42:45.545Z,18.17
2022-09-24T11:45:43.921Z,18.07
2022-09-24T11:48:34.435Z,18.15
2022-09-24T11:51:16.777Z,18.17
2022-09-24T11:53:53.091Z,18.21
2022-09-24T11:56:29.310Z,18.27
2022-09-24T11:59:01.705Z,18.13
2022-09-24T12:01:34.715Z,18.30
2022-09-24T12:04:12.831Z,18.27
2022-09-24T12:06:52.203Z,18.40
2022-09-24T12:09:28.866Z,18.38
2022-09-24T12:12:03.769Z,18.29
2022-09-24T12:14:41.478Z,18.28
2022-09-24T12:17:18.600Z,18.20
2022-09-24T12:19:55.671Z,18.18
2022-09-24T12:22:26.016Z,18.18
2022-09-24T12:24:58.472Z,18.11
2022-09-24T12:27:34.579Z,18.25
2022-09-24T12:30:37.140Z,18.31
2022-09-24T12:33:13.565Z,18.42
2022-09-24T12:36:05.680Z,18.50
2022-09-24T12:38:37.130Z,18.53
2022-09-24T12:41:25.042Z,18.57
2022-09-24T12:44:00.263Z,18.58
2022-09-24T12:46:32.412Z,18.51
2022-09-24T12:49:01.747Z,18.62
2022-09-24T12:51:39.662Z,18.67
2022-09-24T12:54:16.547Z,18.72
2022-09-24T12:56:45.735Z,18.72
2022-09-24T12:59:27.935Z,18.66
2022-09-24T13:01:56.781Z,18.73
2022-09-24T13:04:30.541Z,18.76
2022-09-24T13:07:00.229Z,18.75
2022-09-24T13:09:37.090Z,18.82
2022-09-24T13:12:21.071Z,18.90
2022-09-24T13:14:57.528Z,18.83
2022-09-24T13:17:26.226Z,18.88
2022-09-24T13:20:00.641Z,18.99
2022-09-24T13:22:34.629Z,18.99
2022-09-24T13:25:25.386Z,18.90
2022-09-24T13:28:03.639Z,18.92
2022-09-24T13:30:39.917Z,18.93
2022-09-24T13:33:24.194Z,19.00
2022-09-24T13:36:07.493Z,18.90
2022-09-24T13:38:45.068Z,19.01
2022-09-24T13:41:25.732Z,19.07
2022-09-24T13:44:01.576Z,19.09
2022-09-24T13:46:31.604Z,19.12
2022-09-24T13:49:06.307Z,19.18
2022-09-24T13:51:38.782Z,19.15
2022-09-24T13:54:16.929Z,19.26
2022-09-24T13:57:00.167Z,19.27
2022-09-24T13:59:29.097Z,19.13
2022-09-24T14:01:57.590Z,19.22
2022-09-24T14:04:26.094Z,19.22
2022-09-24T14:06:56.839Z,19.17
2022-09-24T14:09:31.461Z,19.21
2022-09-24T14:12:02.459Z,19.31
2022-09-24T14:14:35.999Z,19.30
2022-09-24T14:17:08.297Z,19.42
2022-09-24T14:19:36.923Z,19.48
2022-09-24T14:22:13.646Z,19.51
2022-09-24T14:24:48.928Z,19.55
2022-09-24T14:27:20.506Z,19.66
2022-09-24T14:29:54.611Z,19.66
2022-09-24T14:32:28.960Z,19.77
2022-09-24T14:35:00.422Z,19.80
2022-09-24T14:37:32.356Z,19.80
2022-09-24T14:40:07.764Z,19.74
2022-09-24T14:42:41.367Z,19.75
2022-09-24T14:45:11.607Z,19.79
2022-09-24T14:47:39.989Z,19.87
2022-09-24T14:50:28.883Z,19.88
2022-09-24T14:53:00.679Z,19.81
2022-09-24T14:55:40.457Z,19.89
2022-09-24T14:58:25.473Z,19.73
2022-09-24T15:00:56.605Z,19.75
2022-09-24T15:03:33.593Z,19.73
2022-09-24T15:06:08.630Z,19.72
2022-09-24T15:08:37.469Z,19.82
2022-09-24T15:11:07.743Z,19.82
2022-09-24T15:13:38.548Z,19.72
2022-09-24T15:16:19.146Z,19.80
2022-09-24T15:19:00.044Z,19.84
2022-09-24T15:21:30.045Z,19.94
2022-09-24T15:23:58.397Z,19.89
2022-09-24T15:26:31.772Z,19.92
2022-09-24T15:29:00.595Z,19.77
2022-09-24T15:31:29.688Z,19.74
2022-09-24T15:33:58.064Z,19.91
2022-09-24T15:36:26.735Z,19.87
2022-09-24T15:39:02.102Z,19.91
2022-09-24T15:41:31.993Z,19.86
2022-09-24T15:44:01.196Z,19.89
2022-09-24T15:46:29.790Z,19.92
2022-09-24T15:48:58.129Z,19.99
2022-09-24T15:51:26.467Z,20.10
2022-09-24T15:53:54.750Z,20.08
2022-09-24T15:56:22.960Z,20.04
2022-09-24T15:58:52.621Z,19.88
2022-09-24T16:01:21.027Z,19.94
2022-09-24T16:03:49.326Z,19.96
2022-09-24T16:06:17.623Z,20.05
2022-09-24T16:08:45.887Z,20.07
2022-09-24T16:11:14.179Z,20.16
2022-09-24T16:13:42.408Z,20.15
2022-09-24T16:16:12.684Z,20.15
2022-09-24T16:18:41.316Z,20.17
2022-09-24T16:21:10.273Z,20.17
2022-09-24T16:23:38.555Z,20.14
2022-09-24T16:26:07.619Z,20.19
2022-09-24T16:28:36.926Z,20.23
2022-09-24T16:31:07.552Z,20.22
2022-09-24T16:33:40.851Z,20.16
2022-09-24T16:36:10.415Z,20.05
2022-09-24T16:38:39.916Z,20.06
2022-09-24T16:41:10.581Z,20.02
2022-09-24T16:43:38.982Z,19.98
2022-09-24T16:46:10.200Z,19.90
2022-09-24T16:48:40.610Z,19.81
2022-09-24T16:51:11.592Z,19.77
2022-09-24T16:53:39.970Z,19.63
2022-09-24T16:56:11.151Z,19.66
2022-09-24T16:58:39.363Z,19.50
2022-09-24T17:01:09.730Z,19.53
2022-09-24T17:03:39.872Z,19.41
2022-09-24T17:06:09.398Z,19.39
2022-09-24T17:08:52.140Z,19.39
2022-09-24T17:11:21.614Z,19.31
2022-09-24T17:13:50.218Z,19.17
2022-09-24T17:16:19.092Z,19.25
2022-09-24T17:18:49.472Z,19.20
2022-09-24T17:21:18.050Z,18.86
2022-09-24T17:23:46.251Z,19.04
2022-09-24T17:26:17.701Z,19.09
2022-09-24T17:28:48.020Z,19.04
2022-09-24T17:31:21.308Z,18.94
2022-09-24T17:33:57.027Z,18.86
2022-09-24T17:36:26.455Z,18.83
2022-09-24T17:38:56.138Z,18.86
2022-09-24T17:41:24.831Z,18.63
2022-09-24T17:43:53.134Z,18.79
2022-09-24T17:46:23.622Z,18.79
2022-09-24T17:48:55.954Z,18.74
2022-09-24T17:51:27.008Z,18.72
2022-09-24T17:53:57.135Z,18.71
2022-09-24T17:56:28.459Z,18.03
2022-09-24T17:58:57.788Z,18.65
2022-09-24T18:01:28.868Z,18.55
2022-09-24T18:04:00.378Z,18.39
2022-09-24T18:06:33.116Z,18.48
2022-09-24T18:09:02.454Z,18.50
2022-09-24T18:11:33.266Z,18.36
2022-09-24T18:14:03.500Z,18.48
2022-09-24T18:16:34.005Z,18.43
2022-09-24T18:19:04.515Z,18.15
2022-09-24T18:21:38.034Z,18.39
2022-09-24T18:24:06.986Z,18.34
2022-09-24T18:26:37.563Z,18.33
2022-09-24T18:29:10.218Z,18.29
2022-09-24T18:31:39.668Z,18.24
2022-09-24T18:34:13.167Z,18.23
2022-09-24T18:36:44.008Z,18.15
2022-09-24T18:39:21.902Z,18.23
2022-09-24T18:41:53.344Z,18.10
2022-09-24T18:44:21.678Z,17.15
2022-09-24T18:46:50.134Z,18.12
2022-09-24T18:49:20.372Z,18.10
2022-09-24T18:51:49.240Z,18.13
2022-09-24T18:54:18.348Z,18.09
2022-09-24T18:56:47.627Z,17.97
2022-09-24T18:59:18.804Z,17.94
2022-09-24T19:01:48.901Z,17.99
2022-09-24T19:04:19.353Z,17.96
2022-09-24T19:06:49.842Z,17.93
2022-09-24T19:09:20.124Z,17.90
2022-09-24T19:11:49.172Z,17.89
2022-09-24T19:14:19.031Z,17.67
2022-09-24T19:16:48.167Z,17.85
2022-09-24T19:19:16.891Z,17.74
2022-09-24T19:21:46.845Z,17.78
2022-09-24T19:24:15.129Z,17.78
2022-09-24T19:26:43.611Z,17.75
2022-09-24T19:29:12.221Z,17.77
2022-09-24T19:31:43.379Z,17.70
2022-09-24T19:34:14.446Z,17.59
2022-09-24T19:36:45.222Z,17.72
2022-09-24T19:39:16.902Z,17.62
2022-09-24T19:41:45.979Z,17.59
2022-09-24T19:44:16.554Z,17.59
2022-09-24T19:46:45.575Z,17.60
2022-09-24T19:49:14.500Z,17.61
2022-09-24T19:51:43.163Z,17.58
2022-09-24T19:54:11.839Z,17.53
2022-09-24T19:56:42.104Z,16.83
2022-09-24T19:59:13.260Z,17.53
2022-09-24T20:01:42.450Z,17.57
2022-09-24T20:04:11.095Z,17.49
2022-09-24T20:06:39.855Z,17.49
2022-09-24T20:09:09.215Z,17.44
2022-09-24T20:11:39.578Z,17.46
2022-09-24T20:14:11.379Z,17.47
2022-09-24T20:16:42.775Z,17.37
2022-09-24T20:19:13.672Z,17.40
2022-09-24T20:21:42.211Z,17.41
2022-09-24T20:24:13.532Z,17.38
2022-09-24T20:26:59.234Z,17.34
2022-09-24T20:29:28.865Z,17.33
2022-09-24T20:31:57.754Z,17.20
2022-09-24T20:34:33.332Z,17.07
2022-09-24T20:37:02.012Z,17.23
2022-09-24T20:39:31.290Z,16.54
2022-09-24T20:42:02.181Z,17.17
2022-09-24T20:44:32.250Z,17.13
2022-09-24T20:47:01.058Z,17.17
2022-09-24T20:49:29.959Z,17.08
2022-09-24T20:51:58.442Z,17.11
2022-09-24T20:54:28.606Z,17.15
2022-09-24T20:56:57.479Z,17.15
2022-09-24T20:59:27.034Z,17.14
2022-09-24T21:01:56.775Z,17.13
2022-09-24T21:04:25.475Z,17.03
2022-09-24T21:06:54.607Z,17.02
2022-09-24T21:09:23.131Z,17.02
2022-09-24T21:11:53.139Z,17.00
2022-09-24T21:14:21.956Z,16.96
2022-09-24T21:16:50.217Z,16.93
2022-09-24T21:19:20.142Z,16.98
2022-09-24T21:21:48.442Z,16.90
2022-09-24T21:24:17.442Z,16.91
2022-09-24T21:26:45.989Z,16.71
2022-09-24T21:29:17.373Z,16.75
2022-09-24T21:31:47.668Z,16.80
2022-09-24T21:34:20.642Z,16.80
2022-09-24T21:36:49.207Z,16.75
2022-09-24T21:39:19.971Z,16.71
2022-09-24T21:41:54.901Z,16.68
2022-09-24T21:44:23.221Z,16.49
2022-09-24T21:46:52.446Z,16.46
2022-09-24T21:49:22.817Z,16.53
2022-09-24T21:51:55.629Z,16.44
2022-09-24T21:54:24.491Z,16.32
2022-09-24T21:56:54.311Z,16.38
2022-09-24T21:59:40.171Z,16.34
2022-09-24T22:02:08.586Z,16.35
2022-09-24T22:04:38.236Z,16.38
2022-09-24T22:07:06.513Z,16.34
2022-09-24T22:09:35.031Z,16.38
2022-09-24T22:12:05.531Z,16.37
2022-09-24T22:14:35.112Z,16.37
2022-09-24T22:17:03.870Z,16.42
2022-09-24T22:19:32.386Z,16.44
2022-09-24T22:22:01.991Z,16.39
2022-09-24T22:24:30.607Z,16.43
2022-09-24T22:26:59.003Z,16.45
2022-09-24T22:29:27.316Z,16.42
2022-09-24T22:31:55.640Z,16.43
2022-09-24T22:34:49.619Z,16.44
2022-09-24T22:37:19.221Z,16.45
2022-09-24T22:39:47.481Z,16.39
2022-09-24T22:42:15.863Z,16.42
2022-09-24T22:44:44.094Z,16.39
2022-09-24T22:47:12.251Z,16.31
2022-09-24T22:49:40.535Z,16.31
2022-09-24T22:52:08.808Z,16.25
2022-09-24T22:54:38.407Z,16.25
2022-09-24T22:57:06.622Z,16.25
2022-09-24T22:59:34.957Z,16.24
2022-09-24T23:02:03.171Z,16.20
2022-09-24T23:04:33.162Z,16.18
2022-09-24T23:07:01.734Z,16.23
2022-09-24T23:09:30.087Z,16.15
2022-09-24T23:11:59.634Z,16.20
2022-09-24T23:14:27.960Z,16.20
2022-09-24T23:16:57.612Z,16.22
2022-09-24T23:19:46.687Z,16.17
2022-09-24T23:22:14.909Z,16.15
2022-09-24T23:24:43.906Z,16.08
2022-09-24T23:27:13.651Z,16.10
2022-09-24T23:29:41.934Z,16.13
2022-09-24T23:32:10.295Z,16.14
2022-09-24T23:34:38.576Z,16.14
2022-09-24T23:37:07.135Z,16.04
2022-09-24T23:39:35.506Z,16.11
2022-09-24T23:42:03.888Z,16.11
2022-09-24T23:44:33.957Z,16.09
2022-09-24T23:47:02.918Z,16.12
2022-09-24T23:49:31.375Z,16.10
2022-09-24T23:51:59.782Z,16.06
2022-09-24T23:54:29.219Z,16.09
2022-09-24T23:56:57.497Z,16.07
2022-09-24T23:59:25.682Z,16.13
